CheckWX is a tool to help pilots better visualize weather data.  It is not intended as a substitute for an official pre-flight weather briefing.

20:25:32 UTC

KSPB METAR
Scappoose Industrial Airpark
Scappoose, Oregon, USA
Current

33 mins ago

KSPB 201953Z AUTO 33010KT 10SM SCT050 18/07 A3002 RMK AO2 SLP167 T01780072
Observed
Apr-20 @ 19:53 UTC
Wind
  • 330° at 10 KTS
Visibility
10 SM
Flight Rules
VFR
Cloud Levels
  • Scattered at 5,000' AGL
Temperature
18°C / 64°F
Dewpoint
C / 45°F
Humidity
49%
Altimeter
30.02" Hg
Pressure
1016.62 hPa
Previous

2 hours ago

KSPB 201853Z AUTO 32010G17KT 10SM FEW030 SCT039 16/08 A3002 RMK AO2 SLP167 T01610078
Observed
Apr-20 @ 18:53 UTC
Wind
  • 320° at 10 KTS
  • Gusting to 17 KTS
Visibility
10 SM
Flight Rules
VFR
Cloud Levels
  • Few at 3,000' AGL
  • Scattered at 3,900' AGL
Temperature
16°C / 61°F
Dewpoint
C / 46°F
Humidity
59%
Altimeter
30.02" Hg
Pressure
1016.62 hPa
Previous

2 hours ago

KSPB 201831Z AUTO 34008G16KT 310V010 10SM SCT028 BKN038 16/08 A3002 RMK AO2 T01610078
Observed
Apr-20 @ 18:31 UTC
Wind
  • 340° at 8 KTS
  • Gusting to 16 KTS
Visibility
10 SM
Flight Rules
VFR
Cloud Levels
  • Scattered at 2,800' AGL
  • Broken at 3,800' AGL
Temperature
16°C / 61°F
Dewpoint
C / 46°F
Humidity
59%
Altimeter
30.02" Hg
Pressure
1016.62 hPa